Climax, Kansas
Current Conditions -  °F | °C
As of 6:15 AM on Saturday 25 Oct 2014 (Local Time) from KEQA Reporting Station
Haze Haze  
Wind Chill: 59°   Ceiling: Unl
Heat Index: 59°   Visibility: 3mi
Dew Point: 57°   Wind: 3mph
Humidity: 94%   Direction: 150°SSE
Pressure: 30.04"   Gusts: NA
Location:  37.6825°N, 96.2141°W
Report Text: KEQA 251115Z AUTO 15003KT 3SM BR CLR 15/14 A3004 RMK AO2
Loading
Personal Weather Stations






























Interactive Weather Map
Tropical Storm Tracking
New forecast layout! Learn more

10-Day Weather Forecast

Advertisements
Track Severe Weather on mobile